Time;durP1;ratioP1;P1;durP2;ratioP2;P2;SDS_P1;SDS_P2;PMS_P1;PMS_P2;Temp;Humidity;BMP_temperature;BMP_pressure;BME280_temperature;BME280_humidity;BME280_pressure;Samples;Min_cycle;Max_cycle;Signal;HPM_P1;HPM_P2
2022/10/03 00:01:02;;;;;;;6.08;1.35;;;;;;;12.84;75.49;98844.00;1671550;86;21009;-90
2022/10/03 00:03:51;;;;;;;4.65;1.75;;;;;;;12.85;75.49;98844.41;1672028;86;21010;-92
2022/10/03 00:06:33;;;;;;;3.08;1.37;;;;;;;12.85;75.32;98844.84;1676019;85;21002;-86
2022/10/03 00:09:39;;;;;;;3.75;1.17;;;;;;;12.84;76.25;98844.00;1676232;86;21053;-89
2022/10/03 00:12:22;;;;;;;3.83;1.40;;;;;;;12.86;75.23;98847.41;1662749;86;21022;-87
2022/10/03 00:15:07;;;;;;;1.90;1.15;;;;;;;12.86;76.29;98845.25;1675811;86;20988;-92
2022/10/03 00:17:54;;;;;;;2.90;1.20;;;;;;;12.88;76.19;98842.13;1670693;86;21026;-89
2022/10/03 00:20:39;;;;;;;3.00;1.20;;;;;;;12.93;75.72;98846.27;1665733;86;21016;-92
2022/10/03 00:23:23;;;;;;;2.20;1.10;;;;;;;12.97;75.32;98853.53;1667352;86;21444;-91
2022/10/03 00:26:25;;;;;;;3.45;1.12;;;;;;;13.00;75.30;98849.94;1674968;86;21048;-88
2022/10/03 00:29:04;;;;;;;3.80;1.10;;;;;;;13.02;75.07;98851.58;1664690;86;20995;-88
2022/10/03 00:31:41;;;;;;;1.87;1.12;;;;;;;13.04;75.36;98854.97;1669337;85;21066;-87
2022/10/03 00:34:38;;;;;;;6.05;1.30;;;;;;;13.04;75.50;98848.45;1655703;86;20967;-89
2022/10/03 00:37:29;;;;;;;10.48;2.50;;;;;;;13.07;75.20;98841.81;1670577;86;21447;-89
2022/10/03 00:40:31;;;;;;;2.15;1.30;;;;;;;13.10;74.98;98836.46;1674681;86;21518;-90
2022/10/03 00:43:16;;;;;;;4.92;1.50;;;;;;;13.11;75.45;98836.00;1668930;85;20996;-89
2022/10/03 00:46:31;;;;;;;6.35;1.50;;;;;;;13.11;75.27;98834.26;1642175;86;21047;-87
2022/10/03 00:49:13;;;;;;;4.03;1.30;;;;;;;13.10;75.58;98822.11;1664431;86;21014;-91
2022/10/03 00:52:07;;;;;;;5.60;1.70;;;;;;;13.12;75.41;98822.05;1626576;85;21089;-89
2022/10/03 00:55:04;;;;;;;3.92;1.50;;;;;;;13.11;75.37;98829.04;1673352;86;21295;-89
2022/10/03 00:57:52;;;;;;;3.37;1.40;;;;;;;13.07;75.80;98830.50;1675267;86;21554;-90
2022/10/03 01:00:34;;;;;;;4.58;1.57;;;;;;;13.06;76.34;98822.30;1655355;86;21611;-90
2022/10/03 01:03:25;;;;;;;5.30;1.60;;;;;;;13.02;75.79;98821.56;1668746;86;21530;-87
2022/10/03 01:06:13;;;;;;;6.12;1.77;;;;;;;12.99;76.06;98823.01;1657198;86;21076;-91
2022/10/03 01:08:48;;;;;;;5.35;1.87;;;;;;;13.00;76.14;98837.73;1668960;85;20992;-88
2022/10/03 01:11:48;;;;;;;4.28;1.57;;;;;;;12.93;76.64;98834.95;1667151;86;21125;-90
2022/10/03 01:14:37;;;;;;;7.50;1.92;;;;;;;12.86;77.00;98826.53;1663130;86;21026;-89
2022/10/03 01:17:36;;;;;;;8.00;2.20;;;;;;;12.84;77.78;98803.56;1668328;85;21010;-90
2022/10/03 01:20:25;;;;;;;5.10;1.80;;;;;;;12.80;77.95;98788.94;1669933;86;21073;-85
2022/10/03 01:23:24;;;;;;;5.62;2.00;;;;;;;12.77;77.69;98796.87;1669717;86;21089;-87
2022/10/03 01:26:15;;;;;;;4.45;1.70;;;;;;;12.75;76.87;98785.65;1620134;86;21040;-89
2022/10/03 01:32:09;;;;;;;4.30;1.70;;;;;;;12.62;78.51;98774.02;1659549;85;21074;-88
2022/10/03 01:35:06;;;;;;;4.30;2.10;;;;;;;12.60;78.12;98775.83;1672633;86;21014;-87
2022/10/03 01:37:38;;;;;;;6.42;1.90;;;;;;;12.49;79.26;98764.49;1671548;85;21014;-86
2022/10/03 01:40:35;;;;;;;4.22;1.85;;;;;;;12.46;78.77;98771.14;1670687;86;21057;-89
2022/10/03 01:43:20;;;;;;;6.42;2.05;;;;;;;12.40;79.86;98765.70;1671155;85;21517;-87
2022/10/03 01:45:58;;;;;;;8.08;2.27;;;;;;;12.37;79.76;98757.14;1670612;86;21027;-88
2022/10/03 01:48:46;;;;;;;7.12;2.20;;;;;;;12.34;80.46;98765.48;1633524;85;21022;-88
2022/10/03 01:51:24;;;;;;;3.08;1.77;;;;;;;12.29;79.70;98756.97;1661582;86;21050;-88
2022/10/03 01:54:25;;;;;;;3.02;1.50;;;;;;;12.24;80.10;98756.30;1664612;86;21047;-87
2022/10/03 01:57:12;;;;;;;8.25;1.90;;;;;;;12.23;80.94;98764.17;1665198;85;21022;-85
2022/10/03 02:00:07;;;;;;;8.65;1.72;;;;;;;12.20;81.27;98762.54;1665163;85;21031;-86
2022/10/03 02:02:54;;;;;;;6.08;1.70;;;;;;;12.23;80.51;98757.66;1672025;86;21562;-89
2022/10/03 02:05:42;;;;;;;3.87;1.65;;;;;;;12.21;81.78;98763.38;1668263;86;21562;-85
2022/10/03 02:08:59;;;;;;;5.55;1.92;;;;;;;12.26;81.68;98761.47;1663632;85;21025;-92
2022/10/03 02:11:41;;;;;;;4.78;2.08;;;;;;;12.21;82.52;98760.77;1671852;86;21471;-86
2022/10/03 02:14:21;;;;;;;13.62;2.12;;;;;;;12.26;81.93;98777.11;1672822;86;21026;-88
2022/10/03 02:17:09;;;;;;;6.10;2.00;;;;;;;12.21;83.63;98777.25;1670702;86;21027;-86
2022/10/03 02:19:51;;;;;;;3.47;1.60;;;;;;;12.24;82.17;98773.70;1664023;85;21050;-86
2022/10/03 02:22:34;;;;;;;7.28;1.95;;;;;;;12.28;82.67;98773.98;1663937;86;21010;-89
2022/10/03 02:25:13;;;;;;;3.10;1.72;;;;;;;12.27;84.28;98776.19;1669767;86;21085;-87
2022/10/03 02:28:08;;;;;;;4.75;1.92;;;;;;;12.32;81.87;98779.02;1669865;86;21530;-90
2022/10/03 02:30:41;;;;;;;;;;;;;;;12.34;82.17;98782.88;1687194;85;21092;-88
2022/10/03 02:33:34;;;;;;;2.65;1.40;;;;;;;12.34;82.29;98781.11;1671324;86;20129;-87
2022/10/03 02:36:22;;;;;;;3.42;1.60;;;;;;;12.33;83.78;98777.25;1653832;86;21013;-86
2022/10/03 02:39:07;;;;;;;4.05;1.65;;;;;;;12.36;82.67;98778.92;1650181;85;21071;-89
2022/10/03 02:41:58;;;;;;;8.78;1.98;;;;;;;12.34;84.16;98782.88;1626920;87;21058;-88
2022/10/03 02:45:15;;;;;;;3.60;1.70;;;;;;;12.27;84.49;98773.58;1655227;86;21048;-89
2022/10/03 02:48:03;;;;;;;4.37;1.62;;;;;;;12.27;84.48;98774.87;1653460;87;21029;-91
2022/10/03 02:51:16;;;;;;;3.17;1.60;;;;;;;12.18;85.53;98763.05;1645726;85;21026;-89
2022/10/03 02:54:10;;;;;;;3.72;1.52;;;;;;;12.17;86.94;98763.10;1642474;87;21061;-87
2022/10/03 02:57:07;;;;;;;6.12;1.62;;;;;;;12.06;87.17;98764.34;1637722;87;21026;-89
2022/10/03 02:59:43;;;;;;;2.02;1.40;;;;;;;12.02;88.78;98765.37;1659491;86;21027;-89
2022/10/03 03:02:48;;;;;;;4.72;1.47;;;;;;;11.97;90.16;98766.43;1653225;86;21014;-86
2022/10/03 03:05:49;;;;;;;4.37;1.72;;;;;;;11.99;88.30;98755.05;1655809;87;21065;-89
2022/10/03 03:08:51;;;;;;;8.25;2.05;;;;;;;11.96;89.71;98755.17;1657076;86;21448;-89
2022/10/03 03:11:42;;;;;;;3.67;1.98;;;;;;;11.90;89.43;98766.66;1629051;87;21034;-88
2022/10/03 03:14:41;;;;;;;2.75;1.60;;;;;;;11.88;88.39;98761.08;1647044;87;21035;-86
2022/10/03 03:17:38;;;;;;;4.75;1.40;;;;;;;11.88;89.48;98759.78;1637986;87;21073;-90
2022/10/03 03:20:51;;;;;;;3.22;1.50;;;;;;;11.83;90.41;98764.28;1653545;87;21045;-87
2022/10/03 03:23:35;;;;;;;4.28;1.60;;;;;;;11.80;90.95;98753.53;1653833;87;21002;-86
2022/10/03 03:26:53;;;;;;;5.53;1.82;;;;;;;11.77;91.82;98758.84;1642051;87;21100;-87
2022/10/03 03:29:28;;;;;;;5.35;2.67;;;;;;;11.77;90.75;98754.93;1636348;87;21105;-89
2022/10/03 03:32:38;;;;;;;7.20;2.05;;;;;;;11.78;90.24;98750.14;1651499;86;21066;-87
2022/10/03 03:35:16;;;;;;;5.28;1.82;;;;;;;11.81;90.49;98751.77;1619346;88;21090;-86
2022/10/03 03:37:57;;;;;;;7.87;2.20;;;;;;;11.78;92.45;98749.27;1647191;87;21011;-88
2022/10/03 03:40:37;;;;;;;4.55;2.05;;;;;;;11.79;91.67;98749.67;1644659;87;21035;-87
2022/10/03 03:43:33;;;;;;;6.05;1.98;;;;;;;11.85;90.53;98745.55;1645857;87;21019;-87
2022/10/03 03:46:33;;;;;;;5.05;1.98;;;;;;;11.79;91.28;98739.26;1652676;87;20990;-87
2022/10/03 03:49:50;;;;;;;3.98;2.15;;;;;;;11.81;92.15;98737.45;1647590;87;20994;-87
2022/10/03 03:52:34;;;;;;;2.92;1.72;;;;;;;11.80;93.46;98737.91;1619087;87;21042;-86
2022/10/03 03:55:40;;;;;;;7.47;1.90;;;;;;;11.80;93.65;98735.73;1652879;87;20963;-88
2022/10/03 03:58:57;;;;;;;5.42;1.92;;;;;;;11.79;91.70;98724.94;1641418;87;21022;-85
2022/10/03 04:01:36;;;;;;;2.95;1.98;;;;;;;11.75;92.75;98717.22;1651071;87;21064;-86
2022/10/03 04:04:40;;;;;;;3.08;1.92;;;;;;;11.74;91.97;98714.69;1625662;87;20970;-88
2022/10/03 04:08:02;;;;;;;2.33;1.67;;;;;;;11.74;92.33;98722.05;1637186;87;20995;-88
2022/10/03 04:11:17;;;;;;;7.83;1.87;;;;;;;11.70;92.43;98724.36;1640861;87;20998;-90
2022/10/03 04:13:50;;;;;;;7.92;3.45;;;;;;;11.68;92.43;98718.81;1550313;87;21077;-88
2022/10/03 04:20:04;;;;;;;4.25;2.30;;;;;;;11.66;91.25;98716.72;1646656;86;21063;-89
2022/10/03 04:22:58;;;;;;;5.90;1.75;;;;;;;11.65;91.17;98711.10;1667981;86;20997;-87
2022/10/03 04:26:09;;;;;;;4.40;1.92;;;;;;;11.68;90.89;98710.55;1667862;86;21030;-85
2022/10/03 04:29:21;;;;;;;5.58;2.00;;;;;;;11.74;91.35;98713.39;1666315;86;21548;-85
2022/10/03 04:32:10;;;;;;;5.08;2.08;;;;;;;11.69;92.96;98708.33;1668169;85;21561;-87
2022/10/03 04:34:59;;;;;;;5.75;1.82;;;;;;;11.73;92.39;98707.31;1669698;85;21013;-89
2022/10/03 04:37:44;;;;;;;4.50;1.80;;;;;;;11.82;90.96;98705.30;1670268;86;21051;-86
2022/10/03 04:40:56;;;;;;;3.62;1.50;;;;;;;11.82;91.29;98697.49;1615456;87;21045;-85
2022/10/03 04:43:59;;;;;;;3.55;1.90;;;;;;;11.81;91.92;98701.83;1677899;85;21041;-90
2022/10/03 04:46:49;;;;;;;3.00;1.60;;;;;;;11.79;92.84;98702.33;1655988;86;20967;-87
2022/10/03 04:49:34;;;;;;;3.77;1.85;;;;;;;11.78;92.29;98706.29;1690393;84;20992;-90
2022/10/03 04:52:13;;;;;;;5.25;1.85;;;;;;;11.80;91.58;98717.07;1674266;84;21002;-91
2022/10/03 04:55:05;;;;;;;2.45;1.40;;;;;;;11.81;92.06;98716.61;1677666;85;21011;-87
2022/10/03 04:58:01;;;;;;;3.08;2.00;;;;;;;11.82;92.17;98726.98;1665761;86;21493;-89
2022/10/03 05:00:49;;;;;;;3.60;1.77;;;;;;;11.82;91.85;98714.42;1687660;85;21081;-88
2022/10/03 05:03:53;;;;;;;2.45;1.60;;;;;;;11.83;91.18;98718.25;1657074;86;20996;-89
2022/10/03 05:07:00;;;;;;;2.92;1.60;;;;;;;11.83;92.45;98711.73;1632898;87;21086;-86
2022/10/03 05:09:52;;;;;;;2.62;1.47;;;;;;;11.80;92.90;98722.28;1654046;87;21021;-89
2022/10/03 05:12:55;;;;;;;3.47;1.50;;;;;;;11.84;92.39;98731.69;1652607;87;21010;-85
2022/10/03 05:15:52;;;;;;;3.02;1.60;;;;;;;11.88;92.93;98728.52;1608524;88;21073;-88
2022/10/03 05:18:45;;;;;;;4.35;1.42;;;;;;;11.97;93.27;98729.50;1614444;89;21003;-85
2022/10/03 05:21:56;;;;;;;3.45;1.25;;;;;;;12.03;93.26;98716.70;1648064;86;21054;-86
2022/10/03 05:24:36;;;;;;;2.72;1.62;;;;;;;12.01;94.25;98714.15;1645474;86;21124;-85
2022/10/03 05:27:27;;;;;;;3.47;1.40;;;;;;;12.08;93.47;98718.70;1634199;87;21663;-84
2022/10/03 05:30:05;;;;;;;4.47;1.52;;;;;;;11.99;94.79;98715.97;1637905;87;21027;-86
2022/10/03 05:33:05;;;;;;;2.98;1.55;;;;;;;12.07;93.89;98726.11;1623603;88;21090;-89
2022/10/03 05:36:19;;;;;;;3.22;1.70;;;;;;;12.05;94.86;98731.36;1675826;85;20982;-88
2022/10/03 05:39:41;;;;;;;7.95;1.70;;;;;;;12.13;94.38;98739.75;1613592;88;21027;-86
2022/10/03 05:42:32;;;;;;;3.02;1.60;;;;;;;12.16;94.65;98755.74;1652911;86;21506;-88
2022/10/03 05:45:25;;;;;;;2.02;1.50;;;;;;;12.16;95.47;98741.88;1643743;87;21004;-88
2022/10/03 05:47:58;;;;;;;2.98;1.70;;;;;;;12.14;95.28;98745.38;1672435;86;21015;-87
2022/10/03 05:50:56;;;;;;;4.37;1.60;;;;;;;12.18;94.77;98747.41;1657238;85;20980;-87
2022/10/03 05:53:51;;;;;;;3.58;1.52;;;;;;;12.19;94.92;98735.23;1659920;86;21019;-85
2022/10/03 05:56:46;;;;;;;3.25;1.50;;;;;;;12.20;94.76;98733.88;1556870;92;21029;-85
2022/10/03 05:59:52;;;;;;;4.70;1.70;;;;;;;12.28;94.81;98740.11;1612380;87;21078;-88
2022/10/03 06:03:01;;;;;;;2.10;1.50;;;;;;;12.28;95.42;98749.23;1665522;86;21039;-87
2022/10/03 06:05:50;;;;;;;2.08;1.30;;;;;;;12.27;95.52;98739.23;1651310;87;20985;-88
2022/10/03 06:08:50;;;;;;;2.65;1.80;;;;;;;12.28;95.52;98745.31;1663131;85;21485;-85
2022/10/03 06:11:35;;;;;;;3.12;1.52;;;;;;;12.34;94.94;98749.83;1595739;88;21017;-87
2022/10/03 06:14:40;;;;;;;3.15;1.67;;;;;;;12.38;95.69;98745.36;1616308;88;21047;-85
2022/10/03 06:17:53;;;;;;;2.20;1.30;;;;;;;12.49;94.99;98744.51;1571006;89;21095;-89
2022/10/03 06:20:56;;;;;;;5.57;1.87;;;;;;;12.54;95.49;98746.46;1618604;86;21049;-84
2022/10/03 06:23:35;;;;;;;4.00;1.55;;;;;;;12.63;95.09;98750.46;1576344;91;21018;-83
2022/10/03 06:26:34;;;;;;;2.35;1.45;;;;;;;12.70;94.48;98755.84;1604645;88;21023;-84
2022/10/03 06:29:22;;;;;;;3.92;1.62;;;;;;;12.76;93.85;98765.19;1637760;87;21025;-84
2022/10/03 06:32:22;;;;;;;3.33;1.50;;;;;;;12.74;94.12;98765.70;1623130;88;21090;-85
2022/10/03 06:35:34;;;;;;;3.72;1.90;;;;;;;12.79;93.94;98764.22;1632721;87;21009;-83
2022/10/03 06:38:25;;;;;;;7.03;1.95;;;;;;;12.87;93.50;98763.45;1639625;87;21005;-87
2022/10/03 06:41:13;;;;;;;6.20;2.17;;;;;;;12.96;93.47;98772.69;1635585;87;21025;-88
2022/10/03 06:44:19;;;;;;;5.12;2.10;;;;;;;13.05;93.06;98770.56;1632467;87;20970;-84
2022/10/03 06:47:22;;;;;;;4.20;1.50;;;;;;;13.15;92.47;98769.74;1646696;87;21010;-84
2022/10/03 06:50:18;;;;;;;6.23;1.73;;;;;;;13.26;91.99;98764.91;1646442;86;21461;-84
2022/10/03 06:53:15;;;;;;;5.72;1.65;;;;;;;13.39;91.13;98770.52;1641546;87;20993;-85
2022/10/03 06:56:12;;;;;;;3.02;1.50;;;;;;;13.48;90.50;98767.97;1637066;87;21076;-86
2022/10/03 06:59:24;;;;;;;4.75;1.47;;;;;;;13.65;90.01;98772.03;1637383;87;21640;-83
2022/10/03 07:02:25;;;;;;;2.40;1.40;;;;;;;13.77;89.53;98780.23;1642158;87;21033;-84
2022/10/03 07:05:35;;;;;;;3.12;1.45;;;;;;;13.91;89.17;98790.95;1642310;86;21002;-84
2022/10/03 07:08:36;;;;;;;4.55;1.92;;;;;;;14.13;88.60;98793.01;1632280;87;21484;-85
2022/10/03 07:11:36;;;;;;;3.62;1.35;;;;;;;14.29;86.89;98781.87;1631851;87;20977;-83
2022/10/03 07:14:24;;;;;;;5.33;1.70;;;;;;;14.46;85.19;98785.01;1647206;87;21025;-85
2022/10/03 07:17:21;;;;;;;6.83;2.05;;;;;;;14.61;84.12;98792.66;1640441;87;21029;-80
2022/10/03 07:20:21;;;;;;;2.30;1.32;;;;;;;14.79;84.52;98801.42;1639455;87;21061;-84
2022/10/03 07:23:13;;;;;;;3.35;1.12;;;;;;;14.94;82.11;98795.91;1629942;87;21025;-83
2022/10/03 07:26:02;;;;;;;2.12;1.00;;;;;;;15.12;77.99;98787.19;1643297;87;20974;-83
2022/10/03 07:28:51;;;;;;;1.92;1.07;;;;;;;15.15;68.70;98802.73;1644013;87;21341;-82
2022/10/03 07:31:39;;;;;;;3.27;1.20;;;;;;;15.27;71.97;98804.75;1629789;87;21046;-86
2022/10/03 07:34:30;;;;;;;4.22;1.32;;;;;;;15.23;71.88;98812.84;1636634;87;20965;-81
2022/10/03 07:40:23;;;;;;;6.42;1.65;;;;;;;15.21;73.18;98845.64;1633302;87;21829;-85
2022/10/03 07:43:04;;;;;;;15.20;6.92;;;;;;;15.18;73.98;98842.31;1644499;87;20969;-84
2022/10/03 07:46:20;;;;;;;2.95;1.60;;;;;;;14.96;74.38;98845.10;1637434;87;21524;-83
2022/10/03 07:49:27;;;;;;;2.52;1.10;;;;;;;14.59;73.56;98853.36;1634169;87;21037;-82
2022/10/03 07:52:47;;;;;;;2.98;1.00;;;;;;;14.25;75.13;98844.38;1635681;87;21026;-82
2022/10/03 07:55:32;;;;;;;3.80;1.50;;;;;;;13.97;76.00;98838.20;1637525;87;20997;-82
2022/10/03 07:58:11;;;;;;;3.30;1.62;;;;;;;13.78;77.30;98836.34;1640561;87;21038;-86
2022/10/03 08:00:59;;;;;;;4.97;1.27;;;;;;;13.69;77.35;98836.28;1643715;86;21026;-85
2022/10/03 08:03:47;;;;;;;2.08;1.25;;;;;;;13.67;77.75;98839.89;1639414;87;21033;-84
2022/10/03 08:06:25;;;;;;;1.87;1.07;;;;;;;13.65;79.08;98839.94;1642172;87;20989;-86
2022/10/03 08:09:31;;;;;;;5.05;1.10;;;;;;;13.63;79.76;98840.46;1641152;87;20986;-82
2022/10/03 08:12:07;;;;;;;1.90;1.00;;;;;;;13.64;79.50;98842.15;1611077;89;21027;-86
2022/10/03 08:14:49;;;;;;;3.47;1.95;;;;;;;13.66;79.05;98837.70;1638915;87;21009;-88
2022/10/03 08:18:00;;;;;;;1.22;0.70;;;;;;;13.76;78.99;98845.17;1638405;87;20990;-83
2022/10/03 08:20:47;;;;;;;2.70;0.72;;;;;;;13.79;77.74;98841.98;1634900;87;21001;-87
2022/10/03 08:23:56;;;;;;;6.12;1.32;;;;;;;13.89;76.85;98841.97;1647846;86;21530;-80
2022/10/03 08:27:18;;;;;;;1.42;0.88;;;;;;;14.03;77.27;98837.92;1617036;89;20991;-87
2022/10/03 08:30:13;;;;;;;1.25;0.82;;;;;;;14.13;75.69;98834.84;1544564;93;21606;-82
2022/10/03 08:32:49;;;;;;;;;;;;;;;14.23;76.25;98842.28;1583004;89;21742;-83
2022/10/03 08:35:28;;;;;;;1.00;0.68;;;;;;;14.25;76.04;98849.60;1599312;89;20118;-81
2022/10/03 08:38:23;;;;;;;1.57;0.90;;;;;;;14.21;73.59;98854.58;1620710;88;21031;-84
2022/10/03 08:41:27;;;;;;;1.10;0.80;;;;;;;14.28;75.14;98857.30;1613194;87;20989;-82
2022/10/03 08:44:24;;;;;;;;;;;;;;;14.27;75.02;98856.45;1628975;88;21527;-83
2022/10/03 08:47:15;;;;;;;11.80;4.67;;;;;;;14.28;75.34;98854.68;1631228;87;20132;-82
2022/10/03 08:50:24;;;;;;;3.60;1.75;;;;;;;14.29;74.26;98853.78;1628273;88;21023;-85
2022/10/03 08:53:38;;;;;;;2.58;1.42;;;;;;;14.28;74.02;98850.76;1643802;87;21023;-83
2022/10/03 08:56:17;;;;;;;2.33;1.25;;;;;;;14.44;74.49;98848.31;1620763;88;21013;-84
2022/10/03 08:59:25;;;;;;;1.72;1.25;;;;;;;14.57;73.16;98852.58;1625679;88;21072;-82
2022/10/03 09:02:16;;;;;;;3.40;1.02;;;;;;;14.60;73.15;98849.81;1609598;88;21568;-84
2022/10/03 09:05:24;;;;;;;1.10;0.80;;;;;;;14.74;72.43;98852.64;1623937;88;20953;-88
2022/10/03 09:08:26;;;;;;;1.70;0.70;;;;;;;14.82;72.42;98849.67;1632480;88;21080;-84
2022/10/03 09:11:29;;;;;;;2.08;0.80;;;;;;;14.97;69.51;98859.91;1623257;87;21037;-83
2022/10/03 09:14:26;;;;;;;0.80;0.72;;;;;;;15.04;69.61;98856.93;1605006;88;21052;-83
2022/10/03 09:17:17;;;;;;;1.52;0.80;;;;;;;15.14;67.87;98860.41;1638494;87;21020;-84
2022/10/03 09:19:51;;;;;;;1.22;0.70;;;;;;;15.28;68.02;98858.84;1603312;88;21008;-82
2022/10/03 09:22:41;;;;;;;4.40;1.07;;;;;;;15.42;67.58;98861.23;1618214;88;21027;-85
2022/10/03 09:25:37;;;;;;;1.37;0.80;;;;;;;15.53;66.03;98857.63;1666097;86;20981;-84
2022/10/03 09:28:25;;;;;;;1.30;0.78;;;;;;;15.65;66.50;98862.27;1665330;86;21014;-84
2022/10/03 09:31:27;;;;;;;2.72;1.02;;;;;;;15.83;63.57;98861.84;1669622;86;20986;-81
2022/10/03 09:34:27;;;;;;;2.40;0.93;;;;;;;16.05;66.58;98857.66;1659169;86;20966;-81
2022/10/03 09:37:37;;;;;;;0.85;0.80;;;;;;;16.21;63.58;98856.88;1637630;86;20990;-84
2022/10/03 09:40:59;;;;;;;0.80;0.80;;;;;;;16.45;65.64;98859.55;1657590;85;21476;-84
2022/10/03 09:43:51;;;;;;;0.90;0.65;;;;;;;16.59;62.78;98864.06;1650607;86;21047;-82
2022/10/03 09:46:43;;;;;;;1.10;1.00;;;;;;;16.67;59.59;98859.69;1658027;85;21008;-81
2022/10/03 09:49:25;;;;;;;0.98;0.72;;;;;;;16.79;60.80;98862.98;1660724;86;21026;-82
2022/10/03 09:52:23;;;;;;;3.77;0.93;;;;;;;16.90;60.21;98847.51;1661859;86;21010;-82
2022/10/03 09:55:10;;;;;;;1.95;0.82;;;;;;;17.03;61.67;98852.95;1664300;86;20963;-82
2022/10/03 09:57:53;;;;;;;2.72;1.00;;;;;;;17.19;60.88;98849.44;1656574;85;20977;-82
2022/10/03 10:00:31;;;;;;;2.17;1.15;;;;;;;17.12;58.52;98843.70;1615040;87;20944;-81
2022/10/03 10:03:33;;;;;;;0.93;0.70;;;;;;;17.25;60.50;98844.70;1661709;85;21031;-84
2022/10/03 10:06:37;;;;;;;16.77;1.57;;;;;;;17.43;59.84;98841.98;1664495;86;21073;-80
2022/10/03 10:09:37;;;;;;;2.70;1.07;;;;;;;17.48;59.12;98832.87;1658451;86;21030;-80
2022/10/03 10:12:13;;;;;;;2.27;0.93;;;;;;;17.56;58.69;98832.91;1659055;86;21038;-84
2022/10/03 10:15:14;;;;;;;3.02;1.10;;;;;;;17.59;59.92;98832.74;1662822;86;20990;-81
2022/10/03 10:18:00;;;;;;;4.95;1.10;;;;;;;17.74;59.54;98830.98;1664476;85;21026;-84
2022/10/03 10:20:49;;;;;;;2.30;0.70;;;;;;;17.82;58.84;98824.80;1664461;85;21013;-81
2022/10/03 10:23:45;;;;;;;1.70;0.90;;;;;;;17.78;56.15;98825.92;1648155;86;21565;-80
2022/10/03 10:26:52;;;;;;;1.17;0.75;;;;;;;17.85;58.46;98828.14;1655694;86;21018;-82
2022/10/03 10:29:34;;;;;;;3.20;1.02;;;;;;;17.97;58.83;98813.41;1663185;86;21037;-79
2022/10/03 10:32:28;;;;;;;1.15;1.00;;;;;;;18.15;58.89;98796.15;1662576;86;20974;-82
2022/10/03 10:35:19;;;;;;;11.63;4.67;;;;;;;18.25;57.28;98793.33;1661739;86;21046;-84
2022/10/03 10:38:14;;;;;;;1.90;1.05;;;;;;;18.35;54.91;98794.92;1664786;86;21010;-82
2022/10/03 10:41:10;;;;;;;5.97;1.10;;;;;;;18.45;56.13;98783.72;1658064;86;21025;-82
2022/10/03 10:44:11;;;;;;;3.47;1.52;;;;;;;18.28;51.49;98811.09;1658688;86;21065;-79
2022/10/03 10:47:08;;;;;;;1.50;0.80;;;;;;;18.22;50.15;98799.63;1662735;86;21672;-80
2022/10/03 10:50:10;;;;;;;7.83;2.42;;;;;;;18.27;51.75;98800.66;1657189;85;21142;-84
2022/10/03 10:53:22;;;;;;;4.05;2.12;;;;;;;18.21;52.98;98811.56;1663903;86;21010;-82
2022/10/03 10:56:17;;;;;;;3.42;1.87;;;;;;;18.19;52.53;98817.39;1658949;86;21533;-80
2022/10/03 10:59:04;;;;;;;3.47;1.32;;;;;;;17.99;51.57;98823.84;1638477;86;21527;-81
2022/10/03 11:01:56;;;;;;;2.12;1.05;;;;;;;17.70;50.72;98831.16;1625989;86;21684;-81
2022/10/03 11:04:58;;;;;;;4.80;1.77;;;;;;;17.67;52.31;98843.66;1642404;87;21026;-79
2022/10/03 11:08:01;;;;;;;3.37;1.52;;;;;;;17.59;53.10;98841.47;1648049;87;21026;-84
2022/10/03 11:10:40;;;;;;;4.97;1.47;;;;;;;17.51;53.55;98834.50;1636764;87;21034;-82
2022/10/03 11:13:57;;;;;;;4.45;1.27;;;;;;;17.53;51.36;98831.31;1643153;87;21017;-81
2022/10/03 11:17:06;;;;;;;5.20;1.95;;;;;;;17.74;52.18;98817.37;1638824;87;21106;-81
2022/10/03 11:20:11;;;;;;;3.87;1.57;;;;;;;17.99;49.41;98835.20;1638518;87;20993;-81
2022/10/03 11:23:19;;;;;;;4.20;0.90;;;;;;;18.16;51.13;98817.08;1638705;87;21632;-79
2022/10/03 11:26:04;;;;;;;1.75;0.88;;;;;;;18.34;48.38;98820.84;1637335;87;21054;-82
2022/10/03 11:29:12;;;;;;;5.50;1.15;;;;;;;18.80;50.97;98821.52;1589963;87;21007;-81
2022/10/03 11:32:08;;;;;;;3.65;1.47;;;;;;;19.02;49.38;98816.17;1643421;87;21037;-80
2022/10/03 11:35:05;;;;;;;7.10;2.35;;;;;;;19.17;46.27;98832.31;1640337;87;21031;-82
2022/10/03 11:37:59;;;;;;;2.05;1.05;;;;;;;19.01;46.13;98837.72;1634805;87;21025;-79
2022/10/03 11:40:43;;;;;;;1.92;0.98;;;;;;;18.84;47.02;98836.17;1642271;87;21026;-79
2022/10/03 11:43:51;;;;;;;7.65;1.22;;;;;;;18.38;47.77;98852.17;1645553;87;21018;-84
2022/10/03 11:46:50;;;;;;;6.17;1.40;;;;;;;17.73;47.97;98854.28;1640821;87;21010;-80
2022/10/03 11:49:44;;;;;;;4.00;1.07;;;;;;;16.73;56.00;98852.80;1647125;87;21510;-83
2022/10/03 11:52:49;;;;;;;2.40;1.10;;;;;;;15.71;61.89;98858.02;1647849;87;21017;-84
2022/10/03 11:55:34;;;;;;;1.57;1.15;;;;;;;15.09;65.15;98858.02;1645850;87;21029;-82
2022/10/03 11:58:34;;;;;;;2.95;1.35;;;;;;;14.67;65.45;98848.63;1645279;87;21033;-82
2022/10/03 12:01:42;;;;;;;2.87;1.30;;;;;;;14.54;63.26;98849.59;1637751;85;21039;-85
2022/10/03 12:04:27;;;;;;;3.08;1.22;;;;;;;14.43;65.81;98847.47;1641235;87;21006;-85
2022/10/03 12:10:13;;;;;;;2.15;1.20;;;;;;;14.30;67.98;98852.41;1627015;87;21046;-81
2022/10/03 12:12:48;;;;;;;3.37;1.12;;;;;;;14.26;68.01;98840.36;1645838;87;21041;-82
2022/10/03 12:15:42;;;;;;;2.65;1.00;;;;;;;14.18;69.07;98843.77;1638966;86;21057;-81
2022/10/03 12:18:33;;;;;;;;;;;;;;;14.18;68.21;98838.55;1644155;87;20982;-83
2022/10/03 12:21:17;;;;;;;1.80;1.20;;;;;;;14.17;69.89;98845.17;1630197;87;20116;-86
2022/10/03 12:24:25;;;;;;;4.35;0.98;;;;;;;14.16;68.31;98839.53;1643105;86;21022;-83
2022/10/03 12:27:12;;;;;;;1.70;1.00;;;;;;;14.13;67.85;98839.22;1644993;87;21010;-85
2022/10/03 12:29:46;;;;;;;2.77;0.90;;;;;;;14.24;66.69;98838.73;1646891;87;20994;-81
2022/10/03 12:32:48;;;;;;;1.55;0.85;;;;;;;14.59;64.07;98842.42;1638665;87;21043;-80
2022/10/03 12:35:42;;;;;;;1.27;0.80;;;;;;;15.08;63.83;98840.16;1638561;87;20998;-83
2022/10/03 12:38:55;;;;;;;1.62;1.00;;;;;;;15.76;59.52;98830.33;1608554;88;21041;-80
2022/10/03 12:41:46;;;;;;;2.50;1.00;;;;;;;16.44;60.01;98834.22;1612589;88;21022;-80
2022/10/03 12:44:52;;;;;;;3.00;0.98;;;;;;;17.03;56.96;98831.06;1643997;86;21005;-82
2022/10/03 12:47:57;;;;;;;1.12;0.70;;;;;;;17.50;57.48;98831.00;1624463;88;21394;-80
2022/10/03 12:50:54;;;;;;;0.90;0.80;;;;;;;17.75;52.50;98826.96;1664587;86;21057;-81
2022/10/03 12:53:58;;;;;;;2.15;0.88;;;;;;;18.12;52.62;98827.41;1660061;86;20995;-82
2022/10/03 12:56:40;;;;;;;4.97;0.90;;;;;;;18.48;50.30;98819.52;1598159;88;21038;-81
2022/10/03 12:59:16;;;;;;;1.98;0.88;;;;;;;18.22;48.67;98829.89;1650263;85;20990;-81
2022/10/03 13:02:04;;;;;;;3.08;0.90;;;;;;;18.26;46.64;98833.16;1661377;84;21565;-81
2022/10/03 13:04:46;;;;;;;1.32;0.80;;;;;;;18.53;47.04;98828.47;1659396;86;21596;-81
2022/10/03 13:07:39;;;;;;;1.72;0.88;;;;;;;18.59;47.92;98821.51;1654052;86;21506;-82
2022/10/03 13:10:21;;;;;;;0.78;0.70;;;;;;;18.43;45.70;98827.72;1657672;86;20997;-82
2022/10/03 13:13:05;;;;;;;1.77;0.88;;;;;;;17.83;47.33;98830.02;1662245;85;21021;-80
2022/10/03 13:16:15;;;;;;;2.85;0.60;;;;;;;17.34;48.14;98828.05;1643534;86;21006;-85
2022/10/03 13:19:17;;;;;;;4.62;1.00;;;;;;;17.12;49.81;98831.03;1586019;89;21076;-80
2022/10/03 13:22:07;;;;;;;1.00;0.80;;;;;;;16.72;50.13;98822.23;1642301;87;20987;-84
2022/10/03 13:24:41;;;;;;;2.72;1.20;;;;;;;16.57;50.78;98826.53;1636948;87;21008;-84
2022/10/03 13:27:43;;;;;;;2.08;0.85;;;;;;;16.55;51.84;98824.92;1639334;87;20968;-84
2022/10/03 13:30:22;;;;;;;1.20;0.80;;;;;;;16.37;51.06;98829.38;1630125;87;21027;-83
2022/10/03 13:33:00;;;;;;;3.72;0.93;;;;;;;16.33;51.96;98826.53;1642269;87;20963;-81
2022/10/03 13:36:08;;;;;;;1.62;0.90;;;;;;;16.29;51.67;98841.58;1637321;87;20983;-81
2022/10/03 13:39:01;;;;;;;2.12;1.20;;;;;;;16.20;51.96;98831.59;1672016;86;21077;-85
2022/10/03 13:41:43;;;;;;;1.25;0.95;;;;;;;16.34;52.63;98829.56;1668431;86;21053;-86
2022/10/03 13:44:22;;;;;;;2.70;1.20;;;;;;;16.37;52.01;98830.69;1658635;85;21076;-86
2022/10/03 13:46:55;;;;;;;2.45;1.00;;;;;;;16.25;52.08;98832.19;1642942;86;21009;-80
2022/10/03 13:49:40;;;;;;;1.70;0.90;;;;;;;16.17;52.52;98829.95;1657107;86;21128;-81
2022/10/03 13:52:34;;;;;;;1.98;1.00;;;;;;;16.20;52.68;98835.53;1615617;87;21040;-80